sensor_id;sensor_type;location;lat;lon;timestamp;P1;P2;P0
72023;PMS5003;59889;50.700;5.440;2023-07-09T00:01:11;10;10;
72023;PMS5003;59889;50.700;5.440;2023-07-09T00:03:34;7;7;
72023;PMS5003;59889;50.700;5.440;2023-07-09T00:06:00;9;7;
72023;PMS5003;59889;50.700;5.440;2023-07-09T00:08:27;6;6;
72023;PMS5003;59889;50.700;5.440;2023-07-09T00:10:52;8;8;
72023;PMS5003;59889;50.700;5.440;2023-07-09T00:13:18;6;6;
72023;PMS5003;59889;50.700;5.440;2023-07-09T00:15:44;6;6;
72023;PMS5003;59889;50.700;5.440;2023-07-09T00:18:09;7;7;
72023;PMS5003;59889;50.700;5.440;2023-07-09T00:20:35;6;6;
72023;PMS5003;59889;50.700;5.440;2023-07-09T00:23:01;6;6;
72023;PMS5003;59889;50.700;5.440;2023-07-09T00:25:27;7;7;
72023;PMS5003;59889;50.700;5.440;2023-07-09T00:27:53;6;6;
72023;PMS5003;59889;50.700;5.440;2023-07-09T00:30:20;5;5;
72023;PMS5003;59889;50.700;5.440;2023-07-09T00:32:44;7;7;
72023;PMS5003;59889;50.700;5.440;2023-07-09T00:35:10;6;6;
72023;PMS5003;59889;50.700;5.440;2023-07-09T00:37:36;8;7;
72023;PMS5003;59889;50.700;5.440;2023-07-09T00:40:02;6;6;
72023;PMS5003;59889;50.700;5.440;2023-07-09T00:42:28;8;7;
72023;PMS5003;59889;50.700;5.440;2023-07-09T00:44:54;6;6;
72023;PMS5003;59889;50.700;5.440;2023-07-09T00:47:22;7;7;
72023;PMS5003;59889;50.700;5.440;2023-07-09T00:49:45;8;7;
72023;PMS5003;59889;50.700;5.440;2023-07-09T00:52:19;8;6;
72023;PMS5003;59889;50.700;5.440;2023-07-09T00:54:37;8;8;
72023;PMS5003;59889;50.700;5.440;2023-07-09T00:57:04;9;8;
72023;PMS5003;59889;50.700;5.440;2023-07-09T00:59:29;5;5;
72023;PMS5003;59889;50.700;5.440;2023-07-09T01:01:54;5;5;
72023;PMS5003;59889;50.700;5.440;2023-07-09T01:04:20;6;6;
72023;PMS5003;59889;50.700;5.440;2023-07-09T01:06:47;7;6;
72023;PMS5003;59889;50.700;5.440;2023-07-09T01:09:12;6;6;
72023;PMS5003;59889;50.700;5.440;2023-07-09T01:11:38;6;6;
72023;PMS5003;59889;50.700;5.440;2023-07-09T01:14:04;7;6;
72023;PMS5003;59889;50.700;5.440;2023-07-09T01:16:31;6;6;
72023;PMS5003;59889;50.700;5.440;2023-07-09T01:18:55;8;7;
72023;PMS5003;59889;50.700;5.440;2023-07-09T01:21:21;7;7;
72023;PMS5003;59889;50.700;5.440;2023-07-09T01:23:47;4;4;
72023;PMS5003;59889;50.700;5.440;2023-07-09T01:26:13;8;8;
72023;PMS5003;59889;50.700;5.440;2023-07-09T01:28:38;6;6;
72023;PMS5003;59889;50.700;5.440;2023-07-09T01:31:04;9;7;
72023;PMS5003;59889;50.700;5.440;2023-07-09T01:33:30;7;7;
72023;PMS5003;59889;50.700;5.440;2023-07-09T01:35:56;7;7;
72023;PMS5003;59889;50.700;5.440;2023-07-09T01:38:22;7;7;
72023;PMS5003;59889;50.700;5.440;2023-07-09T01:40:47;6;6;
72023;PMS5003;59889;50.700;5.440;2023-07-09T01:43:13;8;8;
72023;PMS5003;59889;50.700;5.440;2023-07-09T01:45:39;6;6;
72023;PMS5003;59889;50.700;5.440;2023-07-09T01:48:05;6;6;
72023;PMS5003;59889;50.700;5.440;2023-07-09T01:50:31;5;5;
72023;PMS5003;59889;50.700;5.440;2023-07-09T01:52:57;8;6;
72023;PMS5003;59889;50.700;5.440;2023-07-09T01:55:22;6;6;
72023;PMS5003;59889;50.700;5.440;2023-07-09T01:57:48;6;6;
72023;PMS5003;59889;50.700;5.440;2023-07-09T02:00:15;6;6;
72023;PMS5003;59889;50.700;5.440;2023-07-09T02:02:40;4;4;
72023;PMS5003;59889;50.700;5.440;2023-07-09T02:05:06;6;6;
72023;PMS5003;59889;50.700;5.440;2023-07-09T02:07:31;5;5;
72023;PMS5003;59889;50.700;5.440;2023-07-09T02:09:57;8;8;
72023;PMS5003;59889;50.700;5.440;2023-07-09T02:12:23;7;7;
72023;PMS5003;59889;50.700;5.440;2023-07-09T02:14:49;6;6;
72023;PMS5003;59889;50.700;5.440;2023-07-09T02:17:15;6;6;
72023;PMS5003;59889;50.700;5.440;2023-07-09T02:19:41;6;6;
72023;PMS5003;59889;50.700;5.440;2023-07-09T02:22:07;7;6;
72023;PMS5003;59889;50.700;5.440;2023-07-09T02:24:32;8;8;
72023;PMS5003;59889;50.700;5.440;2023-07-09T02:26:59;5;5;
72023;PMS5003;59889;50.700;5.440;2023-07-09T02:29:24;8;7;
72023;PMS5003;59889;50.700;5.440;2023-07-09T02:31:50;6;6;
72023;PMS5003;59889;50.700;5.440;2023-07-09T02:34:16;7;6;
72023;PMS5003;59889;50.700;5.440;2023-07-09T02:36:41;6;6;
72023;PMS5003;59889;50.700;5.440;2023-07-09T02:39:07;6;6;
72023;PMS5003;59889;50.700;5.440;2023-07-09T02:41:33;5;5;
72023;PMS5003;59889;50.700;5.440;2023-07-09T02:43:59;6;6;
72023;PMS5003;59889;50.700;5.440;2023-07-09T02:46:25;5;5;
72023;PMS5003;59889;50.700;5.440;2023-07-09T02:48:50;5;5;
72023;PMS5003;59889;50.700;5.440;2023-07-09T02:51:16;5;5;
72023;PMS5003;59889;50.700;5.440;2023-07-09T02:53:42;6;5;
72023;PMS5003;59889;50.700;5.440;2023-07-09T02:56:08;7;7;
72023;PMS5003;59889;50.700;5.440;2023-07-09T02:58:34;5;5;
72023;PMS5003;59889;50.700;5.440;2023-07-09T03:00:59;6;6;
72023;PMS5003;59889;50.700;5.440;2023-07-09T03:03:25;5;5;
72023;PMS5003;59889;50.700;5.440;2023-07-09T03:05:51;7;7;
72023;PMS5003;59889;50.700;5.440;2023-07-09T03:08:17;6;6;
72023;PMS5003;59889;50.700;5.440;2023-07-09T03:10:43;5;5;
72023;PMS5003;59889;50.700;5.440;2023-07-09T03:13:09;6;6;
72023;PMS5003;59889;50.700;5.440;2023-07-09T03:15:34;8;7;
72023;PMS5003;59889;50.700;5.440;2023-07-09T03:18:00;6;6;
72023;PMS5003;59889;50.700;5.440;2023-07-09T03:20:26;7;7;
72023;PMS5003;59889;50.700;5.440;2023-07-09T03:22:52;6;6;
72023;PMS5003;59889;50.700;5.440;2023-07-09T03:25:18;6;6;
72023;PMS5003;59889;50.700;5.440;2023-07-09T03:27:43;6;6;
72023;PMS5003;59889;50.700;5.440;2023-07-09T03:30:10;5;5;
72023;PMS5003;59889;50.700;5.440;2023-07-09T03:32:35;6;6;
72023;PMS5003;59889;50.700;5.440;2023-07-09T03:35:01;4;4;
72023;PMS5003;59889;50.700;5.440;2023-07-09T03:37:27;5;5;
72023;PMS5003;59889;50.700;5.440;2023-07-09T03:39:53;6;6;
72023;PMS5003;59889;50.700;5.440;2023-07-09T03:42:18;6;6;
72023;PMS5003;59889;50.700;5.440;2023-07-09T03:44:44;8;7;
72023;PMS5003;59889;50.700;5.440;2023-07-09T03:47:10;6;6;
72023;PMS5003;59889;50.700;5.440;2023-07-09T03:49:36;5;5;
72023;PMS5003;59889;50.700;5.440;2023-07-09T03:52:02;5;5;
72023;PMS5003;59889;50.700;5.440;2023-07-09T03:54:28;6;6;
72023;PMS5003;59889;50.700;5.440;2023-07-09T03:56:53;6;5;
72023;PMS5003;59889;50.700;5.440;2023-07-09T03:59:19;6;6;
72023;PMS5003;59889;50.700;5.440;2023-07-09T04:01:45;8;6;
72023;PMS5003;59889;50.700;5.440;2023-07-09T04:04:11;8;7;
72023;PMS5003;59889;50.700;5.440;2023-07-09T04:06:36;5;5;
72023;PMS5003;59889;50.700;5.440;2023-07-09T04:09:02;6;6;
72023;PMS5003;59889;50.700;5.440;2023-07-09T04:11:28;6;6;
72023;PMS5003;59889;50.700;5.440;2023-07-09T04:13:54;5;5;
72023;PMS5003;59889;50.700;5.440;2023-07-09T04:16:20;6;6;
72023;PMS5003;59889;50.700;5.440;2023-07-09T04:18:45;5;5;
72023;PMS5003;59889;50.700;5.440;2023-07-09T04:21:11;7;7;
72023;PMS5003;59889;50.700;5.440;2023-07-09T04:23:37;6;6;
72023;PMS5003;59889;50.700;5.440;2023-07-09T04:26:03;6;5;
72023;PMS5003;59889;50.700;5.440;2023-07-09T04:28:28;4;4;
72023;PMS5003;59889;50.700;5.440;2023-07-09T04:30:54;7;7;
72023;PMS5003;59889;50.700;5.440;2023-07-09T04:33:20;6;6;
72023;PMS5003;59889;50.700;5.440;2023-07-09T04:35:46;6;5;
72023;PMS5003;59889;50.700;5.440;2023-07-09T04:38:12;7;7;
72023;PMS5003;59889;50.700;5.440;2023-07-09T04:40:37;6;6;
72023;PMS5003;59889;50.700;5.440;2023-07-09T04:43:03;6;6;
72023;PMS5003;59889;50.700;5.440;2023-07-09T04:45:29;7;7;
72023;PMS5003;59889;50.700;5.440;2023-07-09T04:47:55;8;7;
72023;PMS5003;59889;50.700;5.440;2023-07-09T04:50:21;6;6;
72023;PMS5003;59889;50.700;5.440;2023-07-09T04:52:47;5;5;
72023;PMS5003;59889;50.700;5.440;2023-07-09T04:55:12;5;4;
72023;PMS5003;59889;50.700;5.440;2023-07-09T04:57:38;7;7;
72023;PMS5003;59889;50.700;5.440;2023-07-09T05:00:06;6;6;
72023;PMS5003;59889;50.700;5.440;2023-07-09T05:02:30;7;7;
72023;PMS5003;59889;50.700;5.440;2023-07-09T05:04:56;5;5;
72023;PMS5003;59889;50.700;5.440;2023-07-09T05:07:22;6;5;
72023;PMS5003;59889;50.700;5.440;2023-07-09T05:09:47;6;5;
72023;PMS5003;59889;50.700;5.440;2023-07-09T05:12:13;6;6;
72023;PMS5003;59889;50.700;5.440;2023-07-09T05:14:39;5;5;
72023;PMS5003;59889;50.700;5.440;2023-07-09T05:17:05;6;6;
72023;PMS5003;59889;50.700;5.440;2023-07-09T05:19:31;7;7;
72023;PMS5003;59889;50.700;5.440;2023-07-09T05:21:56;7;6;
72023;PMS5003;59889;50.700;5.440;2023-07-09T05:24:22;5;5;
72023;PMS5003;59889;50.700;5.440;2023-07-09T05:26:48;6;6;
72023;PMS5003;59889;50.700;5.440;2023-07-09T05:29:14;6;6;
72023;PMS5003;59889;50.700;5.440;2023-07-09T05:31:39;8;7;
72023;PMS5003;59889;50.700;5.440;2023-07-09T05:34:05;5;5;
72023;PMS5003;59889;50.700;5.440;2023-07-09T05:36:31;7;7;
72023;PMS5003;59889;50.700;5.440;2023-07-09T05:38:57;5;4;
72023;PMS5003;59889;50.700;5.440;2023-07-09T05:41:23;11;10;
72023;PMS5003;59889;50.700;5.440;2023-07-09T05:43:49;11;11;
72023;PMS5003;59889;50.700;5.440;2023-07-09T05:46:14;14;13;
72023;PMS5003;59889;50.700;5.440;2023-07-09T05:48:40;18;18;
72023;PMS5003;59889;50.700;5.440;2023-07-09T05:51:06;15;13;
72023;PMS5003;59889;50.700;5.440;2023-07-09T05:53:32;14;13;
72023;PMS5003;59889;50.700;5.440;2023-07-09T05:55:57;15;15;
72023;PMS5003;59889;50.700;5.440;2023-07-09T05:58:23;14;14;
72023;PMS5003;59889;50.700;5.440;2023-07-09T06:00:49;15;15;
72023;PMS5003;59889;50.700;5.440;2023-07-09T06:03:14;14;14;
72023;PMS5003;59889;50.700;5.440;2023-07-09T06:05:41;16;15;
72023;PMS5003;59889;50.700;5.440;2023-07-09T06:08:06;15;15;
72023;PMS5003;59889;50.700;5.440;2023-07-09T06:10:32;18;18;
72023;PMS5003;59889;50.700;5.440;2023-07-09T06:12:58;16;15;
72023;PMS5003;59889;50.700;5.440;2023-07-09T06:15:24;14;14;
72023;PMS5003;59889;50.700;5.440;2023-07-09T06:17:49;16;16;
72023;PMS5003;59889;50.700;5.440;2023-07-09T06:20:15;16;15;
72023;PMS5003;59889;50.700;5.440;2023-07-09T06:22:41;16;16;
72023;PMS5003;59889;50.700;5.440;2023-07-09T06:25:07;19;17;
72023;PMS5003;59889;50.700;5.440;2023-07-09T06:27:32;14;14;
72023;PMS5003;59889;50.700;5.440;2023-07-09T06:29:58;14;14;
72023;PMS5003;59889;50.700;5.440;2023-07-09T06:32:24;15;15;
72023;PMS5003;59889;50.700;5.440;2023-07-09T06:34:50;16;15;
72023;PMS5003;59889;50.700;5.440;2023-07-09T06:37:15;13;13;
72023;PMS5003;59889;50.700;5.440;2023-07-09T06:39:41;14;14;
72023;PMS5003;59889;50.700;5.440;2023-07-09T06:42:07;16;15;
72023;PMS5003;59889;50.700;5.440;2023-07-09T06:44:33;15;14;
72023;PMS5003;59889;50.700;5.440;2023-07-09T06:46:58;15;13;
72023;PMS5003;59889;50.700;5.440;2023-07-09T06:49:24;14;13;
72023;PMS5003;59889;50.700;5.440;2023-07-09T06:51:50;16;15;
72023;PMS5003;59889;50.700;5.440;2023-07-09T06:54:16;16;15;
72023;PMS5003;59889;50.700;5.440;2023-07-09T06:56:42;15;13;
72023;PMS5003;59889;50.700;5.440;2023-07-09T06:59:07;17;17;
72023;PMS5003;59889;50.700;5.440;2023-07-09T07:01:32;14;13;
72023;PMS5003;59889;50.700;5.440;2023-07-09T07:03:58;14;14;
72023;PMS5003;59889;50.700;5.440;2023-07-09T07:06:24;12;12;
72023;PMS5003;59889;50.700;5.440;2023-07-09T07:08:50;14;14;
72023;PMS5003;59889;50.700;5.440;2023-07-09T07:11:15;15;15;
72023;PMS5003;59889;50.700;5.440;2023-07-09T07:13:42;14;14;
72023;PMS5003;59889;50.700;5.440;2023-07-09T07:16:08;17;16;
72023;PMS5003;59889;50.700;5.440;2023-07-09T07:18:32;15;14;
72023;PMS5003;59889;50.700;5.440;2023-07-09T07:20:58;15;14;
72023;PMS5003;59889;50.700;5.440;2023-07-09T07:23:24;13;12;
72023;PMS5003;59889;50.700;5.440;2023-07-09T07:25:50;13;13;
72023;PMS5003;59889;50.700;5.440;2023-07-09T07:28:16;15;14;
72023;PMS5003;59889;50.700;5.440;2023-07-09T07:30:42;11;11;
72023;PMS5003;59889;50.700;5.440;2023-07-09T07:33:07;12;12;
72023;PMS5003;59889;50.700;5.440;2023-07-09T07:35:33;14;12;
72023;PMS5003;59889;50.700;5.440;2023-07-09T07:37:59;13;13;
72023;PMS5003;59889;50.700;5.440;2023-07-09T07:40:25;14;13;
72023;PMS5003;59889;50.700;5.440;2023-07-09T07:42:50;16;15;
72023;PMS5003;59889;50.700;5.440;2023-07-09T07:45:16;14;14;
72023;PMS5003;59889;50.700;5.440;2023-07-09T07:47:42;13;13;
72023;PMS5003;59889;50.700;5.440;2023-07-09T07:50:08;12;12;
72023;PMS5003;59889;50.700;5.440;2023-07-09T07:52:34;11;10;
72023;PMS5003;59889;50.700;5.440;2023-07-09T07:54:59;16;14;
72023;PMS5003;59889;50.700;5.440;2023-07-09T07:57:25;16;14;
72023;PMS5003;59889;50.700;5.440;2023-07-09T07:59:51;15;14;
72023;PMS5003;59889;50.700;5.440;2023-07-09T08:02:17;13;13;
72023;PMS5003;59889;50.700;5.440;2023-07-09T08:04:43;15;14;
72023;PMS5003;59889;50.700;5.440;2023-07-09T08:07:09;14;14;
72023;PMS5003;59889;50.700;5.440;2023-07-09T08:09:34;14;13;
72023;PMS5003;59889;50.700;5.440;2023-07-09T08:12:00;16;14;
72023;PMS5003;59889;50.700;5.440;2023-07-09T08:14:25;28;28;
72023;PMS5003;59889;50.700;5.440;2023-07-09T08:16:51;21;21;
72023;PMS5003;59889;50.700;5.440;2023-07-09T08:19:17;18;17;
72023;PMS5003;59889;50.700;5.440;2023-07-09T08:21:42;15;15;
72023;PMS5003;59889;50.700;5.440;2023-07-09T08:24:08;16;15;
72023;PMS5003;59889;50.700;5.440;2023-07-09T08:26:34;16;16;
72023;PMS5003;59889;50.700;5.440;2023-07-09T08:29:00;14;13;
72023;PMS5003;59889;50.700;5.440;2023-07-09T08:31:26;17;17;
72023;PMS5003;59889;50.700;5.440;2023-07-09T08:33:52;13;13;
72023;PMS5003;59889;50.700;5.440;2023-07-09T08:36:17;16;15;
72023;PMS5003;59889;50.700;5.440;2023-07-09T08:38:43;13;12;
72023;PMS5003;59889;50.700;5.440;2023-07-09T08:41:14;14;14;
72023;PMS5003;59889;50.700;5.440;2023-07-09T08:43:36;18;17;
72023;PMS5003;59889;50.700;5.440;2023-07-09T08:46:02;12;12;
72023;PMS5003;59889;50.700;5.440;2023-07-09T08:48:28;15;14;
72023;PMS5003;59889;50.700;5.440;2023-07-09T08:50:54;14;14;
72023;PMS5003;59889;50.700;5.440;2023-07-09T08:53:19;15;13;
72023;PMS5003;59889;50.700;5.440;2023-07-09T08:55:44;16;15;
72023;PMS5003;59889;50.700;5.440;2023-07-09T08:58:10;15;15;
72023;PMS5003;59889;50.700;5.440;2023-07-09T09:00:37;16;16;
72023;PMS5003;59889;50.700;5.440;2023-07-09T09:03:02;15;14;
72023;PMS5003;59889;50.700;5.440;2023-07-09T09:05:27;14;13;
72023;PMS5003;59889;50.700;5.440;2023-07-09T09:07:56;14;13;
72023;PMS5003;59889;50.700;5.440;2023-07-09T09:10:21;17;16;
72023;PMS5003;59889;50.700;5.440;2023-07-09T09:12:48;17;15;
72023;PMS5003;59889;50.700;5.440;2023-07-09T09:15:10;13;13;
72023;PMS5003;59889;50.700;5.440;2023-07-09T09:17:37;17;17;
72023;PMS5003;59889;50.700;5.440;2023-07-09T09:20:02;17;15;
72023;PMS5003;59889;50.700;5.440;2023-07-09T09:22:30;15;15;
72023;PMS5003;59889;50.700;5.440;2023-07-09T09:24:55;16;16;
72023;PMS5003;59889;50.700;5.440;2023-07-09T09:27:19;15;14;
72023;PMS5003;59889;50.700;5.440;2023-07-09T09:29:44;15;14;
72023;PMS5003;59889;50.700;5.440;2023-07-09T09:32:19;14;13;
72023;PMS5003;59889;50.700;5.440;2023-07-09T09:34:36;13;13;
72023;PMS5003;59889;50.700;5.440;2023-07-09T09:37:02;16;15;
72023;PMS5003;59889;50.700;5.440;2023-07-09T09:39:27;17;15;
72023;PMS5003;59889;50.700;5.440;2023-07-09T09:41:53;17;16;
72023;PMS5003;59889;50.700;5.440;2023-07-09T09:44:19;18;17;
72023;PMS5003;59889;50.700;5.440;2023-07-09T09:46:44;18;17;
72023;PMS5003;59889;50.700;5.440;2023-07-09T09:49:10;16;14;
72023;PMS5003;59889;50.700;5.440;2023-07-09T09:51:43;18;15;
72023;PMS5003;59889;50.700;5.440;2023-07-09T09:54:02;15;15;
72023;PMS5003;59889;50.700;5.440;2023-07-09T09:56:27;18;16;
72023;PMS5003;59889;50.700;5.440;2023-07-09T09:58:53;15;15;
72023;PMS5003;59889;50.700;5.440;2023-07-09T10:01:18;18;18;
72023;PMS5003;59889;50.700;5.440;2023-07-09T10:03:43;15;15;
72023;PMS5003;59889;50.700;5.440;2023-07-09T10:06:12;14;14;
72023;PMS5003;59889;50.700;5.440;2023-07-09T10:08:37;17;17;
72023;PMS5003;59889;50.700;5.440;2023-07-09T10:11:05;17;16;
72023;PMS5003;59889;50.700;5.440;2023-07-09T10:13:26;16;15;
72023;PMS5003;59889;50.700;5.440;2023-07-09T10:15:56;18;17;
72023;PMS5003;59889;50.700;5.440;2023-07-09T10:18:22;15;15;
72023;PMS5003;59889;50.700;5.440;2023-07-09T10:20:45;16;16;
72023;PMS5003;59889;50.700;5.440;2023-07-09T10:23:13;15;15;
72023;PMS5003;59889;50.700;5.440;2023-07-09T10:25:36;13;13;
72023;PMS5003;59889;50.700;5.440;2023-07-09T10:28:04;18;18;
72023;PMS5003;59889;50.700;5.440;2023-07-09T10:30:32;18;16;
72023;PMS5003;59889;50.700;5.440;2023-07-09T10:32:57;18;17;
72023;PMS5003;59889;50.700;5.440;2023-07-09T10:35:22;17;16;
72023;PMS5003;59889;50.700;5.440;2023-07-09T10:37:48;18;17;
72023;PMS5003;59889;50.700;5.440;2023-07-09T10:40:11;14;13;
72023;PMS5003;59889;50.700;5.440;2023-07-09T10:42:38;18;15;
72023;PMS5003;59889;50.700;5.440;2023-07-09T10:45:03;15;15;
72023;PMS5003;59889;50.700;5.440;2023-07-09T10:47:29;15;15;
72023;PMS5003;59889;50.700;5.440;2023-07-09T10:49:53;17;15;
72023;PMS5003;59889;50.700;5.440;2023-07-09T10:52:25;15;15;
72023;PMS5003;59889;50.700;5.440;2023-07-09T10:54:48;17;16;
72023;PMS5003;59889;50.700;5.440;2023-07-09T10:57:11;15;14;
72023;PMS5003;59889;50.700;5.440;2023-07-09T10:59:36;16;16;
72023;PMS5003;59889;50.700;5.440;2023-07-09T11:02:08;13;13;
72023;PMS5003;59889;50.700;5.440;2023-07-09T11:04:29;15;14;
72023;PMS5003;59889;50.700;5.440;2023-07-09T11:06:53;14;14;
72023;PMS5003;59889;50.700;5.440;2023-07-09T11:09:21;17;16;
72023;PMS5003;59889;50.700;5.440;2023-07-09T11:11:45;14;13;
72023;PMS5003;59889;50.700;5.440;2023-07-09T11:14:16;15;14;
72023;PMS5003;59889;50.700;5.440;2023-07-09T11:16:37;17;15;
72023;PMS5003;59889;50.700;5.440;2023-07-09T11:19:03;16;15;
72023;PMS5003;59889;50.700;5.440;2023-07-09T11:21:28;14;11;
72023;PMS5003;59889;50.700;5.440;2023-07-09T11:23:55;16;15;
72023;PMS5003;59889;50.700;5.440;2023-07-09T11:26:22;15;15;
72023;PMS5003;59889;50.700;5.440;2023-07-09T11:28:46;13;13;
72023;PMS5003;59889;50.700;5.440;2023-07-09T11:31:16;14;14;
72023;PMS5003;59889;50.700;5.440;2023-07-09T11:36:07;13;13;
72023;PMS5003;59889;50.700;5.440;2023-07-09T11:38:36;14;14;
72023;PMS5003;59889;50.700;5.440;2023-07-09T11:40:55;15;15;
72023;PMS5003;59889;50.700;5.440;2023-07-09T11:43:26;14;14;
72023;PMS5003;59889;50.700;5.440;2023-07-09T11:45:46;15;15;
72023;PMS5003;59889;50.700;5.440;2023-07-09T11:48:15;16;14;
72023;PMS5003;59889;50.700;5.440;2023-07-09T11:50:39;14;13;
72023;PMS5003;59889;50.700;5.440;2023-07-09T11:53:05;15;14;
72023;PMS5003;59889;50.700;5.440;2023-07-09T11:55:33;15;15;
72023;PMS5003;59889;50.700;5.440;2023-07-09T11:57:56;14;14;
72023;PMS5003;59889;50.700;5.440;2023-07-09T12:00:21;15;14;
72023;PMS5003;59889;50.700;5.440;2023-07-09T12:02:47;14;14;
72023;PMS5003;59889;50.700;5.440;2023-07-09T12:05:13;14;14;
72023;PMS5003;59889;50.700;5.440;2023-07-09T12:07:38;13;12;
72023;PMS5003;59889;50.700;5.440;2023-07-09T12:10:11;13;13;
72023;PMS5003;59889;50.700;5.440;2023-07-09T12:12:30;14;14;
72023;PMS5003;59889;50.700;5.440;2023-07-09T12:14:56;14;13;
72023;PMS5003;59889;50.700;5.440;2023-07-09T12:17:23;13;13;
72023;PMS5003;59889;50.700;5.440;2023-07-09T12:19:50;13;13;
72023;PMS5003;59889;50.700;5.440;2023-07-09T12:22:16;12;11;
72023;PMS5003;59889;50.700;5.440;2023-07-09T12:24:40;14;13;
72023;PMS5003;59889;50.700;5.440;2023-07-09T12:29:34;11;11;
72023;PMS5003;59889;50.700;5.440;2023-07-09T12:31:56;14;14;
72023;PMS5003;59889;50.700;5.440;2023-07-09T12:34:23;13;12;
72023;PMS5003;59889;50.700;5.440;2023-07-09T12:36:49;14;13;
72023;PMS5003;59889;50.700;5.440;2023-07-09T12:39:14;14;12;
72023;PMS5003;59889;50.700;5.440;2023-07-09T12:41:40;9;9;
72023;PMS5003;59889;50.700;5.440;2023-07-09T12:44:05;14;13;
72023;PMS5003;59889;50.700;5.440;2023-07-09T12:46:31;13;13;
72023;PMS5003;59889;50.700;5.440;2023-07-09T12:48:56;12;12;
72023;PMS5003;59889;50.700;5.440;2023-07-09T12:51:23;15;14;
72023;PMS5003;59889;50.700;5.440;2023-07-09T12:53:48;14;14;
72023;PMS5003;59889;50.700;5.440;2023-07-09T12:56:15;16;14;
72023;PMS5003;59889;50.700;5.440;2023-07-09T12:58:39;14;13;
72023;PMS5003;59889;50.700;5.440;2023-07-09T13:01:05;15;13;
72023;PMS5003;59889;50.700;5.440;2023-07-09T13:03:31;12;11;
72023;PMS5003;59889;50.700;5.440;2023-07-09T13:05:57;12;12;
72023;PMS5003;59889;50.700;5.440;2023-07-09T13:08:23;14;14;
72023;PMS5003;59889;50.700;5.440;2023-07-09T13:10:48;14;14;
72023;PMS5003;59889;50.700;5.440;2023-07-09T13:13:14;15;15;
72023;PMS5003;59889;50.700;5.440;2023-07-09T13:15:40;20;20;
72023;PMS5003;59889;50.700;5.440;2023-07-09T13:18:06;14;14;
72023;PMS5003;59889;50.700;5.440;2023-07-09T13:20:32;17;15;
72023;PMS5003;59889;50.700;5.440;2023-07-09T13:22:57;15;15;
72023;PMS5003;59889;50.700;5.440;2023-07-09T13:25:23;15;15;
72023;PMS5003;59889;50.700;5.440;2023-07-09T13:27:48;16;16;
72023;PMS5003;59889;50.700;5.440;2023-07-09T13:30:14;18;17;
72023;PMS5003;59889;50.700;5.440;2023-07-09T13:32:40;20;19;
72023;PMS5003;59889;50.700;5.440;2023-07-09T13:35:09;17;17;
72023;PMS5003;59889;50.700;5.440;2023-07-09T13:37:31;19;17;
72023;PMS5003;59889;50.700;5.440;2023-07-09T13:39:57;17;17;
72023;PMS5003;59889;50.700;5.440;2023-07-09T13:42:23;18;18;
72023;PMS5003;59889;50.700;5.440;2023-07-09T13:44:49;20;19;
72023;PMS5003;59889;50.700;5.440;2023-07-09T13:47:15;22;21;
72023;PMS5003;59889;50.700;5.440;2023-07-09T13:49:40;19;19;
72023;PMS5003;59889;50.700;5.440;2023-07-09T13:52:08;20;20;
72023;PMS5003;59889;50.700;5.440;2023-07-09T13:54:31;20;20;
72023;PMS5003;59889;50.700;5.440;2023-07-09T13:56:57;25;25;
72023;PMS5003;59889;50.700;5.440;2023-07-09T13:59:23;25;25;
72023;PMS5003;59889;50.700;5.440;2023-07-09T14:01:48;25;24;
72023;PMS5003;59889;50.700;5.440;2023-07-09T14:04:14;26;26;
72023;PMS5003;59889;50.700;5.440;2023-07-09T14:06:39;26;23;
72023;PMS5003;59889;50.700;5.440;2023-07-09T14:09:05;21;21;
72023;PMS5003;59889;50.700;5.440;2023-07-09T14:11:31;23;23;
72023;PMS5003;59889;50.700;5.440;2023-07-09T14:13:56;22;21;
72023;PMS5003;59889;50.700;5.440;2023-07-09T14:16:22;23;22;
72023;PMS5003;59889;50.700;5.440;2023-07-09T14:18:48;21;20;
72023;PMS5003;59889;50.700;5.440;2023-07-09T14:21:14;20;19;
72023;PMS5003;59889;50.700;5.440;2023-07-09T14:23:39;21;21;
72023;PMS5003;59889;50.700;5.440;2023-07-09T14:26:05;19;18;
72023;PMS5003;59889;50.700;5.440;2023-07-09T14:28:30;18;18;
72023;PMS5003;59889;50.700;5.440;2023-07-09T14:30:56;18;17;
72023;PMS5003;59889;50.700;5.440;2023-07-09T14:33:22;21;20;
72023;PMS5003;59889;50.700;5.440;2023-07-09T14:35:48;18;16;
72023;PMS5003;59889;50.700;5.440;2023-07-09T14:38:15;19;19;
72023;PMS5003;59889;50.700;5.440;2023-07-09T14:40:39;19;17;
72023;PMS5003;59889;50.700;5.440;2023-07-09T14:43:07;18;18;
72023;PMS5003;59889;50.700;5.440;2023-07-09T14:45:31;18;16;
72023;PMS5003;59889;50.700;5.440;2023-07-09T14:47:56;18;18;
72023;PMS5003;59889;50.700;5.440;2023-07-09T14:50:22;17;16;
72023;PMS5003;59889;50.700;5.440;2023-07-09T14:52:48;16;16;
72023;PMS5003;59889;50.700;5.440;2023-07-09T14:55:14;21;21;
72023;PMS5003;59889;50.700;5.440;2023-07-09T14:57:39;18;17;
72023;PMS5003;59889;50.700;5.440;2023-07-09T15:00:04;17;17;
72023;PMS5003;59889;50.700;5.440;2023-07-09T15:02:32;22;21;
72023;PMS5003;59889;50.700;5.440;2023-07-09T15:04:55;20;19;
72023;PMS5003;59889;50.700;5.440;2023-07-09T15:07:20;19;18;
72023;PMS5003;59889;50.700;5.440;2023-07-09T15:09:46;20;19;
72023;PMS5003;59889;50.700;5.440;2023-07-09T15:12:15;20;19;
72023;PMS5003;59889;50.700;5.440;2023-07-09T15:14:37;18;17;
72023;PMS5003;59889;50.700;5.440;2023-07-09T15:17:03;19;18;
72023;PMS5003;59889;50.700;5.440;2023-07-09T15:19:29;17;17;
72023;PMS5003;59889;50.700;5.440;2023-07-09T15:21:54;17;17;
72023;PMS5003;59889;50.700;5.440;2023-07-09T15:24:20;19;18;
72023;PMS5003;59889;50.700;5.440;2023-07-09T15:26:44;19;18;
72023;PMS5003;59889;50.700;5.440;2023-07-09T15:29:12;19;18;
72023;PMS5003;59889;50.700;5.440;2023-07-09T15:31:35;20;19;
72023;PMS5003;59889;50.700;5.440;2023-07-09T15:34:01;23;22;
72023;PMS5003;59889;50.700;5.440;2023-07-09T15:36:27;20;19;
72023;PMS5003;59889;50.700;5.440;2023-07-09T15:38:52;21;21;
72023;PMS5003;59889;50.700;5.440;2023-07-09T15:41:18;23;21;
72023;PMS5003;59889;50.700;5.440;2023-07-09T15:43:44;22;22;
72023;PMS5003;59889;50.700;5.440;2023-07-09T15:46:11;22;22;
72023;PMS5003;59889;50.700;5.440;2023-07-09T15:48:36;21;19;
72023;PMS5003;59889;50.700;5.440;2023-07-09T15:51:02;19;19;
72023;PMS5003;59889;50.700;5.440;2023-07-09T15:53:27;19;19;
72023;PMS5003;59889;50.700;5.440;2023-07-09T15:55:56;22;22;
72023;PMS5003;59889;50.700;5.440;2023-07-09T15:58:19;23;23;
72023;PMS5003;59889;50.700;5.440;2023-07-09T16:00:43;20;20;
72023;PMS5003;59889;50.700;5.440;2023-07-09T16:03:09;21;20;
72023;PMS5003;59889;50.700;5.440;2023-07-09T16:05:35;22;21;
72023;PMS5003;59889;50.700;5.440;2023-07-09T16:08:00;20;19;
72023;PMS5003;59889;50.700;5.440;2023-07-09T16:10:26;21;19;
72023;PMS5003;59889;50.700;5.440;2023-07-09T16:12:52;20;18;
72023;PMS5003;59889;50.700;5.440;2023-07-09T16:15:18;21;21;
72023;PMS5003;59889;50.700;5.440;2023-07-09T16:17:44;18;18;
72023;PMS5003;59889;50.700;5.440;2023-07-09T16:20:09;18;17;
72023;PMS5003;59889;50.700;5.440;2023-07-09T16:22:35;18;17;